createdAt,value
2018-11-05T00:02:14.393Z,27.30
2018-11-05T00:04:43.222Z,28.57
2018-11-05T00:07:11.946Z,28.30
2018-11-05T00:09:40.885Z,24.73
2018-11-05T00:12:09.629Z,38.17
2018-11-05T00:14:38.329Z,29.57
2018-11-05T00:17:07.045Z,31.23
2018-11-05T00:19:35.743Z,33.40
2018-11-05T00:22:04.641Z,26.43
2018-11-05T00:24:33.463Z,31.97
2018-11-05T00:27:02.163Z,27.13
2018-11-05T00:29:31.113Z,28.97
2018-11-05T00:31:59.831Z,31.03
2018-11-05T00:34:28.682Z,27.77
2018-11-05T00:36:57.424Z,28.63
2018-11-05T00:39:26.142Z,27.20
2018-11-05T00:41:54.854Z,30.08
2018-11-05T00:44:23.563Z,33.30
2018-11-05T00:46:52.284Z,37.10
2018-11-05T00:49:20.993Z,31.68
2018-11-05T00:51:49.713Z,27.13
2018-11-05T00:54:18.412Z,29.57
2018-11-05T00:56:47.118Z,25.40
2018-11-05T00:59:16.021Z,25.53
2018-11-05T01:01:44.758Z,28.50
2018-11-05T01:07:10.344Z,27.77
2018-11-05T01:09:39.065Z,24.37
2018-11-05T01:12:07.791Z,25.93
2018-11-05T01:14:36.523Z,24.87
2018-11-05T01:17:05.816Z,24.67
2018-11-05T01:19:34.541Z,23.80
2018-11-05T01:22:03.312Z,22.70
2018-11-05T01:24:32.037Z,26.57
2018-11-05T01:27:01.010Z,24.97
2018-11-05T01:29:29.708Z,24.40
2018-11-05T01:31:58.447Z,24.47
2018-11-05T01:34:27.160Z,22.13
2018-11-05T01:36:55.912Z,26.43
2018-11-05T01:39:25.024Z,22.83
2018-11-05T01:41:53.751Z,25.63
2018-11-05T01:44:22.592Z,23.32
2018-11-05T01:46:51.317Z,25.23
2018-11-05T01:49:20.040Z,22.50
2018-11-05T01:51:48.749Z,21.17
2018-11-05T01:54:17.452Z,22.67
2018-11-05T01:56:46.160Z,30.10
2018-11-05T01:59:14.873Z,24.10
2018-11-05T02:01:43.599Z,23.47
2018-11-05T02:04:12.304Z,20.65
2018-11-05T02:06:41.175Z,22.60
2018-11-05T02:09:10.472Z,24.13
2018-11-05T02:11:39.340Z,23.33
2018-11-05T02:14:08.168Z,20.67
2018-11-05T02:16:37.015Z,23.63
2018-11-05T02:19:06.155Z,24.00
2018-11-05T02:21:35.036Z,26.90
2018-11-05T02:24:03.828Z,24.87
2018-11-05T02:26:32.502Z,20.53
2018-11-05T02:29:01.205Z,23.73
2018-11-05T02:31:30.052Z,25.70
2018-11-05T02:33:59.245Z,25.20
2018-11-05T02:36:28.340Z,24.47
2018-11-05T02:38:57.444Z,26.50
2018-11-05T02:41:26.167Z,22.90
2018-11-05T02:43:54.857Z,24.10
2018-11-05T02:46:23.576Z,29.70
2018-11-05T02:48:52.279Z,22.23
2018-11-05T02:51:21.187Z,25.40
2018-11-05T02:53:49.905Z,28.73
2018-11-05T02:56:18.615Z,22.52
2018-11-05T02:58:47.326Z,29.23
2018-11-05T03:01:16.041Z,24.85
2018-11-05T03:03:44.754Z,22.00
2018-11-05T03:06:13.630Z,25.72
2018-11-05T03:08:42.476Z,32.90
2018-11-05T03:11:11.304Z,23.83
2018-11-05T03:13:40.040Z,30.60
2018-11-05T03:16:08.983Z,25.50
2018-11-05T03:18:37.708Z,25.23
2018-11-05T03:21:06.640Z,26.67
2018-11-05T03:23:35.370Z,27.13
2018-11-05T03:26:04.580Z,27.90
2018-11-05T03:28:33.283Z,27.33
2018-11-05T03:31:02.174Z,22.73
2018-11-05T03:33:30.885Z,21.97
2018-11-05T03:35:59.611Z,26.93
2018-11-05T03:38:28.301Z,27.77
2018-11-05T03:40:57.003Z,27.67
2018-11-05T03:43:25.925Z,25.77
2018-11-05T03:45:54.636Z,23.30
2018-11-05T03:48:23.336Z,25.68
2018-11-05T03:50:52.392Z,29.13
2018-11-05T03:53:21.116Z,24.17
2018-11-05T03:55:49.925Z,27.70
2018-11-05T03:58:18.579Z,25.63
2018-11-05T04:00:47.328Z,25.40
2018-11-05T04:03:16.067Z,27.37
2018-11-05T04:05:44.826Z,31.37
2018-11-05T04:08:13.525Z,26.95
2018-11-05T04:10:42.500Z,30.40
2018-11-05T04:13:11.273Z,30.50
2018-11-05T04:15:40.063Z,28.10
2018-11-05T04:18:08.697Z,30.30
2018-11-05T04:20:37.407Z,31.33
2018-11-05T04:23:06.126Z,36.43
2018-11-05T04:25:35.101Z,33.93
2018-11-05T04:28:04.931Z,31.60
2018-11-05T04:30:33.827Z,30.72
2018-11-05T04:33:02.532Z,32.57
2018-11-05T04:35:31.253Z,34.33
2018-11-05T04:38:00.036Z,42.93
2018-11-05T04:40:28.744Z,37.20
2018-11-05T04:42:57.456Z,39.87
2018-11-05T04:45:26.176Z,28.83
2018-11-05T04:47:54.898Z,33.30
2018-11-05T04:50:23.640Z,36.60
2018-11-05T04:52:52.592Z,30.83
2018-11-05T04:55:21.313Z,33.37
2018-11-05T04:57:56.318Z,28.00
2018-11-05T05:00:25.072Z,33.60
2018-11-05T05:02:53.775Z,31.80
2018-11-05T05:05:22.482Z,33.65
2018-11-05T05:07:51.756Z,28.37
2018-11-05T05:10:20.499Z,32.38
2018-11-05T05:12:49.208Z,32.67
2018-11-05T05:15:17.933Z,30.08
2018-11-05T05:17:46.804Z,32.10
2018-11-05T05:20:16.619Z,29.55
2018-11-05T05:22:45.723Z,28.97
2018-11-05T05:25:14.486Z,32.43
2018-11-05T05:27:43.188Z,32.77
2018-11-05T05:30:15.130Z,34.27
2018-11-05T05:32:44.426Z,26.37
2018-11-05T05:35:13.145Z,30.70
2018-11-05T05:37:42.435Z,36.13
2018-11-05T05:40:11.169Z,34.10
2018-11-05T05:42:40.604Z,33.00
2018-11-05T05:45:10.589Z,28.30
2018-11-05T05:47:39.396Z,34.00
2018-11-05T05:50:10.837Z,36.60
2018-11-05T05:52:39.760Z,28.83
2018-11-05T05:55:08.848Z,29.83
2018-11-05T05:57:37.561Z,27.73
2018-11-05T06:00:08.773Z,28.12
2018-11-05T06:02:37.757Z,34.30
2018-11-05T06:05:07.276Z,26.07
2018-11-05T06:07:36.408Z,29.20
2018-11-05T06:10:05.264Z,43.60
2018-11-05T06:12:33.968Z,34.00
2018-11-05T06:15:02.707Z,34.33
2018-11-05T06:17:31.748Z,32.73
2018-11-05T06:20:00.411Z,35.53
2018-11-05T06:22:29.119Z,40.90
2018-11-05T06:24:58.384Z,28.30
2018-11-05T06:27:27.108Z,36.03
2018-11-05T06:29:55.824Z,34.40
2018-11-05T06:32:24.540Z,28.23
2018-11-05T06:34:53.271Z,29.70
2018-11-05T06:37:22.259Z,31.05
2018-11-05T06:39:50.973Z,26.13
2018-11-05T06:42:19.792Z,32.28
2018-11-05T06:44:48.557Z,35.37
2018-11-05T06:47:17.217Z,34.27
2018-11-05T06:49:58.236Z,30.40
2018-11-05T06:52:26.997Z,31.23
2018-11-05T06:54:55.933Z,34.90
2018-11-05T06:57:24.651Z,31.20
2018-11-05T06:59:53.393Z,34.33
2018-11-05T07:02:22.359Z,36.50
2018-11-05T07:04:51.304Z,33.77
2018-11-05T07:07:20.300Z,50.10
2018-11-05T07:09:49.345Z,44.97
2018-11-05T07:12:17.989Z,44.27
2018-11-05T07:14:46.792Z,37.45
2018-11-05T07:17:15.504Z,55.10
2018-11-05T07:19:44.321Z,57.87
2018-11-05T07:22:13.395Z,49.63
2018-11-05T07:24:42.268Z,55.93
2018-11-05T07:27:10.999Z,56.68
2018-11-05T07:29:39.924Z,53.27
2018-11-05T07:32:08.682Z,48.73
2018-11-05T07:34:37.391Z,53.33
2018-11-05T07:37:06.096Z,54.10
2018-11-05T07:39:34.836Z,48.93
2018-11-05T07:42:03.555Z,58.30
2018-11-05T07:44:32.264Z,54.17
2018-11-05T07:47:01.007Z,46.87
2018-11-05T07:49:29.783Z,44.23
2018-11-05T07:51:58.484Z,42.27
2018-11-05T07:54:27.191Z,43.27
2018-11-05T07:56:56.058Z,46.90
2018-11-05T07:59:24.744Z,36.47
2018-11-05T08:01:53.483Z,51.40
2018-11-05T08:04:22.213Z,46.07
2018-11-05T08:06:51.209Z,54.87
2018-11-05T08:09:19.925Z,43.47
2018-11-05T08:11:48.636Z,46.80
2018-11-05T08:14:17.350Z,58.43
2018-11-05T08:16:46.058Z,61.73
2018-11-05T08:19:14.772Z,58.25
2018-11-05T08:21:43.484Z,56.37
2018-11-05T08:24:12.342Z,51.77
2018-11-05T08:26:41.040Z,59.20
2018-11-05T08:29:09.788Z,49.45
2018-11-05T08:31:38.496Z,65.13
2018-11-05T08:34:07.372Z,55.50
2018-11-05T08:36:36.950Z,53.30
2018-11-05T08:39:08.893Z,52.30
2018-11-05T08:41:37.592Z,62.37
2018-11-05T08:44:07.509Z,60.28
2018-11-05T08:46:36.471Z,54.00
2018-11-05T08:49:05.608Z,59.03
2018-11-05T08:51:34.641Z,58.70
2018-11-05T08:54:03.289Z,54.17
2018-11-05T08:56:31.994Z,55.20
2018-11-05T08:59:00.696Z,50.73
2018-11-05T09:01:33.101Z,59.47
2018-11-05T09:04:02.268Z,62.15
2018-11-05T09:06:30.971Z,52.43
2018-11-05T09:08:59.691Z,51.63
2018-11-05T09:11:29.030Z,51.27
2018-11-05T09:13:57.542Z,53.57
2018-11-05T09:16:26.549Z,54.70
2018-11-05T09:18:55.355Z,59.47
2018-11-05T09:21:24.071Z,49.73
2018-11-05T09:23:52.832Z,49.63
2018-11-05T09:26:21.560Z,59.83
2018-11-05T09:28:50.294Z,48.63
2018-11-05T09:31:19.015Z,50.80
2018-11-05T09:33:47.732Z,49.30
2018-11-05T09:36:16.740Z,55.30
2018-11-05T09:38:45.444Z,52.37
2018-11-05T09:41:14.149Z,49.67
2018-11-05T09:43:43.114Z,50.33
2018-11-05T09:46:11.858Z,59.45
2018-11-05T09:48:41.048Z,51.00
2018-11-05T09:51:10.142Z,56.00
2018-11-05T09:53:38.856Z,50.83
2018-11-05T09:56:07.604Z,53.20
2018-11-05T09:58:36.333Z,48.10
2018-11-05T10:01:06.071Z,48.17
2018-11-05T10:03:40.050Z,48.40
2018-11-05T10:06:08.549Z,48.33
2018-11-05T10:08:37.279Z,50.50
2018-11-05T10:11:06.159Z,43.97
2018-11-05T10:13:35.027Z,49.00
2018-11-05T10:16:03.733Z,52.60
2018-11-05T10:18:32.449Z,47.60
2018-11-05T10:21:01.224Z,52.90
2018-11-05T10:23:29.945Z,43.07
2018-11-05T10:25:58.661Z,48.97
2018-11-05T10:28:34.209Z,49.30
2018-11-05T10:31:02.934Z,45.43
2018-11-05T10:33:31.713Z,46.23
2018-11-05T10:36:00.386Z,49.70
2018-11-05T10:38:29.141Z,47.90
2018-11-05T10:40:57.814Z,48.60
2018-11-05T10:43:26.505Z,46.50
2018-11-05T10:45:55.231Z,45.73
2018-11-05T10:48:23.983Z,38.63
2018-11-05T10:50:52.742Z,42.63
2018-11-05T10:53:21.440Z,47.07
2018-11-05T10:55:50.161Z,41.27
2018-11-05T10:58:19.246Z,45.90
2018-11-05T11:00:53.151Z,46.63
2018-11-05T11:03:21.867Z,43.23
2018-11-05T11:05:50.613Z,43.10
2018-11-05T11:08:19.331Z,48.48
2018-11-05T11:10:48.047Z,44.73
2018-11-05T11:13:16.764Z,44.27
2018-11-05T11:15:45.497Z,41.47
2018-11-05T11:18:14.432Z,46.13
2018-11-05T11:20:43.178Z,45.10
2018-11-05T11:23:11.901Z,41.77
2018-11-05T11:25:40.684Z,40.63
2018-11-05T11:28:09.449Z,43.85
2018-11-05T11:30:38.129Z,43.30
2018-11-05T11:33:06.861Z,39.77
2018-11-05T11:35:35.567Z,42.13
2018-11-05T11:38:05.692Z,38.77
2018-11-05T11:40:34.407Z,43.03
2018-11-05T11:43:03.144Z,41.47
2018-11-05T11:45:31.945Z,42.40
2018-11-05T11:48:00.647Z,41.40
2018-11-05T11:50:29.413Z,44.87
2018-11-05T11:52:58.253Z,42.53
2018-11-05T11:55:26.883Z,43.40
2018-11-05T11:57:55.631Z,45.23
2018-11-05T12:00:25.473Z,42.90
2018-11-05T12:02:54.382Z,38.27
2018-11-05T12:05:23.324Z,44.87
2018-11-05T12:07:51.851Z,43.10
2018-11-05T12:10:22.304Z,42.30
2018-11-05T12:12:51.010Z,42.40
2018-11-05T12:15:20.678Z,40.17
2018-11-05T12:17:50.489Z,40.90
2018-11-05T12:20:20.565Z,35.57
2018-11-05T12:22:49.732Z,38.97
2018-11-05T12:25:18.451Z,39.00
2018-11-05T12:27:47.413Z,39.33
2018-11-05T12:30:19.119Z,41.47
2018-11-05T12:32:49.042Z,37.95
2018-11-05T12:35:17.737Z,38.67
2018-11-05T12:37:47.463Z,38.10
2018-11-05T12:40:17.300Z,37.00
2018-11-05T12:42:47.193Z,43.10
2018-11-05T12:45:15.912Z,42.10
2018-11-05T12:47:44.672Z,40.30
2018-11-05T12:50:15.813Z,42.43
2018-11-05T12:52:45.447Z,39.37
2018-11-05T12:55:14.180Z,41.13
2018-11-05T12:57:42.955Z,36.93
2018-11-05T13:00:15.853Z,38.15
2018-11-05T13:02:44.608Z,37.67
2018-11-05T13:05:14.009Z,36.47
2018-11-05T13:07:42.730Z,36.60
2018-11-05T13:10:12.500Z,36.60
2018-11-05T13:12:41.238Z,34.00
2018-11-05T13:15:10.728Z,35.00
2018-11-05T13:17:40.065Z,38.73
2018-11-05T13:20:17.643Z,39.30
2018-11-05T13:22:46.591Z,41.77
2018-11-05T13:25:15.343Z,34.47
2018-11-05T13:27:45.214Z,38.70
2018-11-05T13:30:14.395Z,39.80
2018-11-05T13:32:43.551Z,37.47
2018-11-05T13:35:19.786Z,36.87
2018-11-05T13:37:48.927Z,38.20
2018-11-05T13:40:18.505Z,36.00
2018-11-05T13:42:47.618Z,32.70
2018-11-05T13:45:16.707Z,35.23
2018-11-05T13:47:45.985Z,36.03
2018-11-05T13:50:14.733Z,35.47
2018-11-05T13:52:43.640Z,37.00
2018-11-05T13:55:13.413Z,37.90
2018-11-05T13:57:43.436Z,37.73
2018-11-05T14:00:15.673Z,35.93
2018-11-05T14:02:44.397Z,35.33
2018-11-05T14:05:13.365Z,36.28
2018-11-05T14:07:42.093Z,37.53
2018-11-05T14:10:13.980Z,39.10
2018-11-05T14:12:43.693Z,38.17
2018-11-05T14:15:12.321Z,39.38
2018-11-05T14:17:41.729Z,35.37
2018-11-05T14:20:11.494Z,37.53
2018-11-05T14:22:40.848Z,36.53
2018-11-05T14:25:12.051Z,36.00
2018-11-05T14:27:41.568Z,39.40
2018-11-05T14:30:11.644Z,40.13
2018-11-05T14:32:41.084Z,37.00
2018-11-05T14:35:09.822Z,37.33
2018-11-05T14:40:14.965Z,36.58
2018-11-05T14:42:43.741Z,35.03
2018-11-05T14:45:13.839Z,36.77
2018-11-05T14:47:43.499Z,34.03
2018-11-05T14:50:13.680Z,39.40
2018-11-05T14:52:42.379Z,37.27
2018-11-05T14:55:13.216Z,33.77
2018-11-05T14:57:42.568Z,37.37
2018-11-05T15:00:14.476Z,35.30
2018-11-05T15:02:43.899Z,36.30
2018-11-05T15:05:13.341Z,35.13
2018-11-05T15:07:42.877Z,37.93
2018-11-05T15:10:16.874Z,38.63
2018-11-05T15:12:45.715Z,34.47
2018-11-05T15:15:14.968Z,35.48
2018-11-05T15:17:44.248Z,41.17
2018-11-05T15:20:14.301Z,40.40
2018-11-05T15:22:42.794Z,42.07
2018-11-05T15:25:11.913Z,37.50
2018-11-05T15:27:40.918Z,37.80
2018-11-05T15:30:10.964Z,38.20
2018-11-05T15:32:40.396Z,40.60
2018-11-05T15:35:09.233Z,41.53
2018-11-05T15:37:38.754Z,36.67
2018-11-05T15:40:08.188Z,36.67
2018-11-05T15:42:36.962Z,38.30
2018-11-05T15:45:07.257Z,38.93
2018-11-05T15:47:35.996Z,38.77
2018-11-05T15:50:06.719Z,37.38
2018-11-05T15:52:37.107Z,37.67
2018-11-05T15:55:05.521Z,36.67
2018-11-05T15:57:34.500Z,36.97
2018-11-05T16:00:03.310Z,35.87
2018-11-05T16:02:32.289Z,36.33
2018-11-05T16:05:14.972Z,37.20
2018-11-05T16:07:43.729Z,33.57
2018-11-05T16:10:27.448Z,36.80
2018-11-05T16:12:56.156Z,35.10
2018-11-05T16:15:44.119Z,34.97
2018-11-05T16:18:12.881Z,26.85
2018-11-05T16:20:41.594Z,33.13
2018-11-05T16:23:10.324Z,33.50
2018-11-05T16:25:39.103Z,43.23
2018-11-05T16:28:07.771Z,42.43
2018-11-05T16:33:47.997Z,41.03
2018-11-05T16:39:27.286Z,40.23
2018-11-05T16:44:52.409Z,36.13
2018-11-05T16:47:43.000Z,39.60
2018-11-05T16:50:28.796Z,36.33
2018-11-05T16:53:11.347Z,40.07
2018-11-05T16:55:40.089Z,33.00
2018-11-05T16:58:09.084Z,32.55
2018-11-05T17:00:38.028Z,40.83
2018-11-05T17:03:07.027Z,39.93
2018-11-05T17:05:35.704Z,35.87
2018-11-05T17:08:05.629Z,38.92
2018-11-05T17:10:34.543Z,37.10
2018-11-05T17:13:05.233Z,37.47
2018-11-05T17:15:34.054Z,35.80
2018-11-05T17:18:03.023Z,40.73
2018-11-05T17:20:38.579Z,32.00
2018-11-05T17:23:07.301Z,34.00
2018-11-05T17:25:36.023Z,34.90
2018-11-05T17:28:05.235Z,32.33
2018-11-05T17:30:34.132Z,38.20
2018-11-05T17:33:03.134Z,36.90
2018-11-05T17:35:32.125Z,33.92
2018-11-05T17:38:00.857Z,31.20
2018-11-05T17:40:29.592Z,35.57
2018-11-05T17:42:58.328Z,36.07
2018-11-05T17:45:27.066Z,33.03
2018-11-05T17:47:55.781Z,39.10
2018-11-05T17:50:24.549Z,40.47
2018-11-05T17:52:53.263Z,41.07
2018-11-05T17:55:28.167Z,42.93
2018-11-05T17:57:57.045Z,42.60
2018-11-05T18:00:25.772Z,46.80
2018-11-05T18:02:54.737Z,48.03
2018-11-05T18:05:23.724Z,40.00
2018-11-05T18:07:52.458Z,37.67
2018-11-05T18:10:21.425Z,41.98
2018-11-05T18:12:50.999Z,43.70
2018-11-05T18:15:19.758Z,39.37
2018-11-05T18:17:48.488Z,38.10
2018-11-05T18:20:17.868Z,39.00
2018-11-05T18:22:46.588Z,50.20
2018-11-05T18:25:16.556Z,50.63
2018-11-05T18:27:45.397Z,48.13
2018-11-05T18:30:14.609Z,40.85
2018-11-05T18:32:43.572Z,40.50
2018-11-05T18:35:13.364Z,44.17
2018-11-05T18:37:44.324Z,55.97
2018-11-05T18:40:14.301Z,49.75
2018-11-05T18:42:43.916Z,47.27
2018-11-05T18:45:12.918Z,39.47
2018-11-05T18:47:41.989Z,50.00
2018-11-05T18:50:12.439Z,44.43
2018-11-05T18:52:41.213Z,42.90
2018-11-05T18:55:11.186Z,42.73
2018-11-05T18:57:40.122Z,43.23
2018-11-05T19:00:16.933Z,51.40
2018-11-05T19:02:46.336Z,44.57
2018-11-05T19:05:15.096Z,40.92
2018-11-05T19:07:43.837Z,38.73
2018-11-05T19:10:13.040Z,48.52
2018-11-05T19:12:41.863Z,40.70
2018-11-05T19:15:11.873Z,39.55
2018-11-05T19:17:40.792Z,46.43
2018-11-05T19:20:09.631Z,41.77
2018-11-05T19:22:39.212Z,45.70
2018-11-05T19:25:09.201Z,49.70
2018-11-05T19:27:38.509Z,49.60
2018-11-05T19:30:11.391Z,48.23
2018-11-05T19:32:40.645Z,48.10
2018-11-05T19:35:10.344Z,51.58
2018-11-05T19:37:40.396Z,54.03
2018-11-05T19:40:10.732Z,51.53
2018-11-05T19:42:40.540Z,56.23
2018-11-05T19:45:11.628Z,53.47
2018-11-05T19:47:40.620Z,41.47
2018-11-05T19:50:11.769Z,44.27
2018-11-05T19:52:41.817Z,46.20
2018-11-05T19:55:11.811Z,42.05
2018-11-05T19:57:41.692Z,44.43
2018-11-05T20:00:16.637Z,53.15
2018-11-05T20:02:45.878Z,48.93
2018-11-05T20:05:15.222Z,44.07
2018-11-05T20:07:44.600Z,46.00
2018-11-05T20:10:15.272Z,44.23
2018-11-05T20:12:45.035Z,43.07
2018-11-05T20:15:13.808Z,40.50
2018-11-05T20:17:43.647Z,41.20
2018-11-05T20:20:13.684Z,37.93
2018-11-05T20:22:42.500Z,36.30
2018-11-05T20:25:11.834Z,48.40
2018-11-05T20:27:41.207Z,44.90
2018-11-05T20:30:16.347Z,46.33
2018-11-05T20:32:46.935Z,41.17
2018-11-05T20:35:15.344Z,46.70
2018-11-05T20:37:44.060Z,41.93
2018-11-05T20:40:15.066Z,40.30
2018-11-05T20:42:45.046Z,39.50
2018-11-05T20:45:14.169Z,49.87
2018-11-05T20:47:43.170Z,56.28
2018-11-05T20:50:13.009Z,51.60
2018-11-05T20:52:41.777Z,43.03
2018-11-05T20:55:11.819Z,41.43
2018-11-05T20:57:41.043Z,43.93
2018-11-05T21:00:11.289Z,55.87
2018-11-05T21:02:41.147Z,46.30
2018-11-05T21:05:09.869Z,45.08
2018-11-05T21:07:39.091Z,49.20
2018-11-05T21:10:09.240Z,41.03
2018-11-05T21:12:38.464Z,41.87
2018-11-05T21:15:08.057Z,47.23
2018-11-05T21:17:36.792Z,47.23
2018-11-05T21:20:05.569Z,45.63
2018-11-05T21:22:34.341Z,45.30
2018-11-05T21:25:03.312Z,46.67
2018-11-05T21:27:32.034Z,50.47
2018-11-05T21:30:00.781Z,52.03
2018-11-05T21:32:29.519Z,53.27
2018-11-05T21:34:58.745Z,48.83
2018-11-05T21:37:27.659Z,46.93
2018-11-05T21:39:56.387Z,40.93
2018-11-05T21:42:25.329Z,47.63
2018-11-05T21:44:54.034Z,45.77
2018-11-05T21:47:22.770Z,46.10
2018-11-05T21:49:51.462Z,43.00
2018-11-05T21:52:20.168Z,45.65
2018-11-05T21:54:49.368Z,44.67
2018-11-05T21:57:18.157Z,41.53
2018-11-05T21:59:46.859Z,41.73
2018-11-05T22:02:15.593Z,43.53
2018-11-05T22:04:44.345Z,44.23
2018-11-05T22:07:13.051Z,39.90
2018-11-05T22:09:41.788Z,42.27
2018-11-05T22:12:10.493Z,43.07
2018-11-05T22:14:39.469Z,42.43
2018-11-05T22:17:08.205Z,40.70
2018-11-05T22:19:36.900Z,41.37
2018-11-05T22:22:05.624Z,37.27
2018-11-05T22:24:34.349Z,40.67
2018-11-05T22:27:03.445Z,40.23
2018-11-05T22:29:32.144Z,38.80
2018-11-05T22:32:00.869Z,37.77
2018-11-05T22:34:29.884Z,37.67
2018-11-05T22:36:58.611Z,37.97
2018-11-05T22:39:27.298Z,40.00
2018-11-05T22:41:56.012Z,42.83
2018-11-05T22:44:24.933Z,41.10
2018-11-05T22:46:53.674Z,44.23
2018-11-05T22:49:22.423Z,38.00
2018-11-05T22:51:51.116Z,38.87
2018-11-05T22:54:19.831Z,38.08
2018-11-05T22:56:48.523Z,41.77
2018-11-05T23:02:28.288Z,39.07
2018-11-05T23:04:57.021Z,38.77
2018-11-05T23:07:25.930Z,42.10
2018-11-05T23:09:54.656Z,37.20
2018-11-05T23:12:23.608Z,41.40
2018-11-05T23:14:59.007Z,37.87
2018-11-05T23:17:27.724Z,35.07
2018-11-05T23:19:56.435Z,37.83
2018-11-05T23:22:25.127Z,34.57
2018-11-05T23:24:53.852Z,33.83
2018-11-05T23:27:22.584Z,33.67
2018-11-05T23:29:51.307Z,40.87
2018-11-05T23:32:20.308Z,34.13
2018-11-05T23:34:49.020Z,35.00
2018-11-05T23:37:17.724Z,38.15
2018-11-05T23:39:46.699Z,32.87
2018-11-05T23:42:15.416Z,32.23
2018-11-05T23:44:44.145Z,29.70
2018-11-05T23:47:12.856Z,34.98
2018-11-05T23:49:41.562Z,32.67
2018-11-05T23:52:10.384Z,31.35
2018-11-05T23:54:39.026Z,28.23
2018-11-05T23:57:07.731Z,31.73
2018-11-05T23:59:36.448Z,33.67
